sensor_id;sensor_type;location;lat;lon;timestamp;pressure;altitude;pressure_sealevel;temperature;humidity
12452;BME280;72521;48.924;12.204;2024-03-25T00:03:16;32152.50;;;3.53;74.34
12452;BME280;72521;48.924;12.204;2024-03-25T00:08:19;32338.78;;;3.55;74.33
12452;BME280;72521;48.924;12.204;2024-03-25T00:13:22;32337.63;;;3.63;74.34
12452;BME280;72521;48.924;12.204;2024-03-25T00:18:27;32662.47;;;3.59;74.34
12452;BME280;72521;48.924;12.204;2024-03-25T00:23:30;32805.03;;;3.61;74.34
12452;BME280;72521;48.924;12.204;2024-03-25T00:28:33;33045.97;;;3.59;74.34
12452;BME280;72521;48.924;12.204;2024-03-25T00:33:38;33276.63;;;3.57;74.34
12452;BME280;72521;48.924;12.204;2024-03-25T00:38:42;33501.84;;;3.55;74.35
12452;BME280;72521;48.924;12.204;2024-03-25T00:43:45;33608.16;;;3.56;74.34
12452;BME280;72521;48.924;12.204;2024-03-25T00:48:49;33699.56;;;3.59;74.34
12452;BME280;72521;48.924;12.204;2024-03-25T00:53:52;33903.47;;;3.60;74.34
12452;BME280;72521;48.924;12.204;2024-03-25T00:58:55;34088.84;;;3.60;74.36
12452;BME280;72521;48.924;12.204;2024-03-25T01:04:01;34327.34;;;3.63;74.35
12452;BME280;72521;48.924;12.204;2024-03-25T01:09:04;34612.09;;;3.61;74.35
12452;BME280;72521;48.924;12.204;2024-03-25T01:14:08;34744.50;;;3.63;74.35
12452;BME280;72521;48.924;12.204;2024-03-25T01:19:12;35042.16;;;3.61;74.35
12452;BME280;72521;48.924;12.204;2024-03-25T01:24:15;35143.97;;;3.63;74.36
12452;BME280;72521;48.924;12.204;2024-03-25T01:29:18;35394.09;;;3.64;74.37
12452;BME280;72521;48.924;12.204;2024-03-25T01:34:23;35608.16;;;3.64;74.36
12452;BME280;72521;48.924;12.204;2024-03-25T01:39:26;35746.41;;;3.63;74.36
12452;BME280;72521;48.924;12.204;2024-03-25T01:44:29;36046.41;;;3.60;74.38
12452;BME280;72521;48.924;12.204;2024-03-25T01:49:34;36232.50;;;3.57;74.38
12452;BME280;72521;48.924;12.204;2024-03-25T01:54:37;36253.34;;;3.62;74.36
12452;BME280;72521;48.924;12.204;2024-03-25T01:59:41;36327.19;;;3.65;74.37
12452;BME280;72521;48.924;12.204;2024-03-25T02:04:45;36396.44;;;3.69;74.38
12452;BME280;72521;48.924;12.204;2024-03-25T02:09:48;36734.84;;;3.66;74.38
12452;BME280;72521;48.924;12.204;2024-03-25T02:14:52;36700.78;;;3.74;74.38
12452;BME280;72521;48.924;12.204;2024-03-25T02:19:56;36997.13;;;3.74;74.38
12452;BME280;72521;48.924;12.204;2024-03-25T02:25:00;37399.50;;;3.75;74.40
12452;BME280;72521;48.924;12.204;2024-03-25T02:30:06;37630.38;;;3.77;74.40
12452;BME280;72521;48.924;12.204;2024-03-25T02:35:13;37895.88;;;3.77;74.41
12452;BME280;72521;48.924;12.204;2024-03-25T02:40:19;38085.47;;;3.75;74.40
12452;BME280;72521;48.924;12.204;2024-03-25T02:45:24;38376.78;;;3.75;74.41
12452;BME280;72521;48.924;12.204;2024-03-25T02:50:28;38775.06;;;3.68;74.41
12452;BME280;72521;48.924;12.204;2024-03-25T02:55:31;39138.56;;;3.60;74.41
12452;BME280;72521;48.924;12.204;2024-03-25T03:00:35;39556.63;;;3.44;74.40
12452;BME280;72521;48.924;12.204;2024-03-25T03:05:39;39647.84;;;3.41;74.40
12452;BME280;72521;48.924;12.204;2024-03-25T03:10:42;39955.06;;;3.33;74.40
12452;BME280;72521;48.924;12.204;2024-03-25T03:15:46;40112.66;;;3.30;74.39
12452;BME280;72521;48.924;12.204;2024-03-25T03:20:49;40120.59;;;3.39;74.40
12452;BME280;72521;48.924;12.204;2024-03-25T03:25:52;40339.03;;;3.42;74.41
12452;BME280;72521;48.924;12.204;2024-03-25T03:30:57;40375.94;;;3.55;74.42
12452;BME280;72521;48.924;12.204;2024-03-25T03:36:00;40769.88;;;3.50;74.42
12452;BME280;72521;48.924;12.204;2024-03-25T03:41:04;40980.03;;;3.48;74.43
12452;BME280;72521;48.924;12.204;2024-03-25T03:46:09;41118.66;;;3.51;74.43
12452;BME280;72521;48.924;12.204;2024-03-25T03:51:13;41393.94;;;3.46;74.44
12452;BME280;72521;48.924;12.204;2024-03-25T03:56:16;41342.06;;;3.50;74.43
12452;BME280;72521;48.924;12.204;2024-03-25T04:01:20;41653.81;;;3.49;74.43
12452;BME280;72521;48.924;12.204;2024-03-25T04:06:23;41850.38;;;3.42;74.44
12452;BME280;72521;48.924;12.204;2024-03-25T04:11:26;41973.19;;;3.41;74.44
12452;BME280;72521;48.924;12.204;2024-03-25T04:16:30;41879.75;;;3.44;74.44
12452;BME280;72521;48.924;12.204;2024-03-25T04:21:33;41885.50;;;3.41;74.42
12452;BME280;72521;48.924;12.204;2024-03-25T04:26:36;42073.50;;;3.44;74.44
12452;BME280;72521;48.924;12.204;2024-03-25T04:31:41;42183.75;;;3.43;74.44
12452;BME280;72521;48.924;12.204;2024-03-25T04:36:44;42405.25;;;3.43;74.44
12452;BME280;72521;48.924;12.204;2024-03-25T04:41:47;42528.50;;;3.46;74.44
12452;BME280;72521;48.924;12.204;2024-03-25T04:46:50;42660.28;;;3.42;74.45
12452;BME280;72521;48.924;12.204;2024-03-25T04:51:53;42721.41;;;3.49;74.45
12452;BME280;72521;48.924;12.204;2024-03-25T04:56:54;43051.53;;;3.45;74.45
12452;BME280;72521;48.924;12.204;2024-03-25T05:01:58;43353.75;;;3.45;74.45
12452;BME280;72521;48.924;12.204;2024-03-25T05:07:00;43501.81;;;3.47;74.47
12452;BME280;72521;48.924;12.204;2024-03-25T05:12:03;43693.81;;;3.48;74.47
12452;BME280;72521;48.924;12.204;2024-03-25T05:17:08;43682.97;;;3.59;74.49
12452;BME280;72521;48.924;12.204;2024-03-25T05:22:12;44242.66;;;3.51;74.50
12452;BME280;72521;48.924;12.204;2024-03-25T05:27:15;44136.75;;;3.62;74.48
12452;BME280;72521;48.924;12.204;2024-03-25T05:32:18;44336.22;;;3.63;74.48
12452;BME280;72521;48.924;12.204;2024-03-25T05:37:20;44644.16;;;3.64;74.50
12452;BME280;72521;48.924;12.204;2024-03-25T05:42:22;44761.38;;;3.65;74.50
12452;BME280;72521;48.924;12.204;2024-03-25T05:47:25;44802.13;;;3.72;74.51
12452;BME280;72521;48.924;12.204;2024-03-25T05:52:28;44998.03;;;3.71;74.52
12452;BME280;72521;48.924;12.204;2024-03-25T05:57:30;45134.81;;;3.75;74.51
12452;BME280;72521;48.924;12.204;2024-03-25T06:02:34;45275.97;;;3.81;74.54
12452;BME280;72521;48.924;12.204;2024-03-25T06:07:36;45349.72;;;3.83;74.54
12452;BME280;72521;48.924;12.204;2024-03-25T06:12:38;45490.56;;;3.89;74.54
12452;BME280;72521;48.924;12.204;2024-03-25T06:17:41;45466.38;;;3.98;74.54
12452;BME280;72521;48.924;12.204;2024-03-25T06:22:43;45490.16;;;4.10;74.55
12452;BME280;72521;48.924;12.204;2024-03-25T06:27:45;45654.34;;;4.16;74.55
12452;BME280;72521;48.924;12.204;2024-03-25T06:32:50;45664.19;;;4.22;74.56
12452;BME280;72521;48.924;12.204;2024-03-25T06:38:10;45917.84;;;4.26;74.58
12452;BME280;72521;48.924;12.204;2024-03-25T06:43:13;46141.59;;;4.32;74.58
12452;BME280;72521;48.924;12.204;2024-03-25T06:48:17;46290.41;;;4.37;74.60
12452;BME280;72521;48.924;12.204;2024-03-25T06:53:19;46434.13;;;4.39;74.60
12452;BME280;72521;48.924;12.204;2024-03-25T06:58:22;46533.72;;;4.73;74.63
12452;BME280;72521;48.924;12.204;2024-03-25T07:03:26;46672.19;;;5.29;74.66
12452;BME280;72521;48.924;12.204;2024-03-25T07:08:29;47005.63;;;5.59;74.71
12452;BME280;72521;48.924;12.204;2024-03-25T07:13:31;47816.81;;;5.56;74.72
12452;BME280;72521;48.924;12.204;2024-03-25T07:18:35;47945.25;;;5.96;74.76
12452;BME280;72521;48.924;12.204;2024-03-25T07:23:37;48927.19;;;6.05;74.79
12452;BME280;72521;48.924;12.204;2024-03-25T07:28:39;49890.41;;;5.69;74.82
12452;BME280;72521;48.924;12.204;2024-03-25T07:33:43;50744.09;;;5.36;74.83
12452;BME280;72521;48.924;12.204;2024-03-25T07:38:45;51415.44;;;5.42;74.85
12452;BME280;72521;48.924;12.204;2024-03-25T07:43:47;51702.44;;;5.73;74.88
12452;BME280;72521;48.924;12.204;2024-03-25T07:48:50;52327.31;;;5.91;74.92
12452;BME280;72521;48.924;12.204;2024-03-25T07:53:52;53189.41;;;5.91;74.98
12452;BME280;72521;48.924;12.204;2024-03-25T07:58:55;54291.56;;;5.80;75.04
12452;BME280;72521;48.924;12.204;2024-03-25T08:03:58;54116.94;;;7.30;75.12
12452;BME280;72521;48.924;12.204;2024-03-25T08:09:01;56318.25;;;6.81;75.34
12452;BME280;72521;48.924;12.204;2024-03-25T08:14:05;57781.34;;;6.49;75.50
12452;BME280;72521;48.924;12.204;2024-03-25T08:19:08;58888.31;;;6.42;75.60
12452;BME280;72521;48.924;12.204;2024-03-25T08:24:10;59829.72;;;6.46;75.71
12452;BME280;72521;48.924;12.204;2024-03-25T08:29:13;60825.66;;;6.28;75.85
12452;BME280;72521;48.924;12.204;2024-03-25T08:34:16;61772.66;;;6.14;75.98
12452;BME280;72521;48.924;12.204;2024-03-25T08:39:18;62546.69;;;5.83;76.10
12452;BME280;72521;48.924;12.204;2024-03-25T08:44:21;63214.66;;;5.64;76.21
12452;BME280;72521;48.924;12.204;2024-03-25T08:49:26;63572.13;;;5.68;76.27
12452;BME280;72521;48.924;12.204;2024-03-25T08:54:28;63999.25;;;5.86;76.32
12452;BME280;72521;48.924;12.204;2024-03-25T08:59:30;63860.69;;;7.61;76.28
12452;BME280;72521;48.924;12.204;2024-03-25T09:04:33;65236.47;;;7.33;76.58
12452;BME280;72521;48.924;12.204;2024-03-25T09:09:35;66524.63;;;6.96;76.85
12452;BME280;72521;48.924;12.204;2024-03-25T09:14:55;66945.22;;;8.08;77.03
12452;BME280;72521;48.924;12.204;2024-03-25T09:19:59;69286.94;;;6.63;77.64
12452;BME280;72521;48.924;12.204;2024-03-25T09:25:01;69761.19;;;7.00;77.74
12452;BME280;72521;48.924;12.204;2024-03-25T09:30:04;70517.66;;;7.11;77.96
12452;BME280;72521;48.924;12.204;2024-03-25T09:35:08;71217.84;;;7.08;78.25
12452;BME280;72521;48.924;12.204;2024-03-25T09:40:11;72191.41;;;7.09;78.79
12452;BME280;72521;48.924;12.204;2024-03-25T09:45:15;73094.97;;;7.13;79.33
12452;BME280;72521;48.924;12.204;2024-03-25T09:50:19;73768.19;;;7.09;79.90
12452;BME280;72521;48.924;12.204;2024-03-25T09:55:22;73797.16;;;7.67;79.98
12452;BME280;72521;48.924;12.204;2024-03-25T10:00:24;73851.59;;;8.47;80.31
12452;BME280;72521;48.924;12.204;2024-03-25T10:05:27;74839.78;;;8.43;83.04
12452;BME280;72521;48.924;12.204;2024-03-25T10:10:29;75953.03;;;8.48;87.76
12452;BME280;72521;48.924;12.204;2024-03-25T10:15:32;76981.88;;;8.49;97.68
12452;BME280;72521;48.924;12.204;2024-03-25T10:20:36;76377.66;;;10.83;94.04
12452;BME280;72521;48.924;12.204;2024-03-25T10:25:38;77810.31;;;10.51;100.00
12452;BME280;72521;48.924;12.204;2024-03-25T10:30:41;79595.00;;;9.52;100.00
12452;BME280;72521;48.924;12.204;2024-03-25T10:35:45;80892.44;;;8.75;100.00
12452;BME280;72521;48.924;12.204;2024-03-25T10:40:55;80781.63;;;10.06;100.00
12452;BME280;72521;48.924;12.204;2024-03-25T10:45:58;82034.44;;;9.23;100.00
12452;BME280;72521;48.924;12.204;2024-03-25T10:51:03;81984.41;;;10.64;100.00
12452;BME280;72521;48.924;12.204;2024-03-25T10:56:07;82573.00;;;10.77;100.00
12452;BME280;72521;48.924;12.204;2024-03-25T11:01:10;83897.69;;;9.65;100.00
12452;BME280;72521;48.924;12.204;2024-03-25T11:06:14;84689.19;;;9.56;100.00
12452;BME280;72521;48.924;12.204;2024-03-25T11:11:15;85161.31;;;9.36;100.00
12452;BME280;72521;48.924;12.204;2024-03-25T11:16:28;84597.22;;;11.07;100.00
12452;BME280;72521;48.924;12.204;2024-03-25T11:21:32;85727.03;;;10.22;100.00
12452;BME280;72521;48.924;12.204;2024-03-25T11:26:34;85082.34;;;12.18;100.00
12452;BME280;72521;48.924;12.204;2024-03-25T11:31:39;85606.28;;;12.24;100.00
12452;BME280;72521;48.924;12.204;2024-03-25T11:36:42;84242.31;;;14.25;100.00
12452;BME280;72521;48.924;12.204;2024-03-25T11:41:44;85305.34;;;12.09;100.00
12452;BME280;72521;48.924;12.204;2024-03-25T11:46:46;84358.84;;;11.74;100.00
12452;BME280;72521;48.924;12.204;2024-03-25T11:51:49;84785.22;;;10.63;100.00
12452;BME280;72521;48.924;12.204;2024-03-25T11:56:53;84631.16;;;12.27;100.00
12452;BME280;72521;48.924;12.204;2024-03-25T12:01:56;86815.19;;;9.32;100.00
12452;BME280;72521;48.924;12.204;2024-03-25T12:06:59;85853.44;;;11.56;100.00
12452;BME280;72521;48.924;12.204;2024-03-25T12:12:01;87440.19;;;9.27;100.00
12452;BME280;72521;48.924;12.204;2024-03-25T12:17:04;87104.16;;;10.61;100.00
12452;BME280;72521;48.924;12.204;2024-03-25T12:22:07;86803.09;;;12.21;100.00
12452;BME280;72521;48.924;12.204;2024-03-25T12:27:09;87140.53;;;11.33;100.00
12452;BME280;72521;48.924;12.204;2024-03-25T12:32:11;86057.97;;;13.23;100.00
12452;BME280;72521;48.924;12.204;2024-03-25T12:37:15;86392.81;;;12.77;100.00
12452;BME280;72521;48.924;12.204;2024-03-25T12:42:17;85979.59;;;12.96;100.00
12452;BME280;72521;48.924;12.204;2024-03-25T12:47:20;87578.03;;;10.41;100.00
12452;BME280;72521;48.924;12.204;2024-03-25T12:52:23;87892.50;;;10.19;100.00
12452;BME280;72521;48.924;12.204;2024-03-25T12:57:25;87607.31;;;11.23;100.00
12452;BME280;72521;48.924;12.204;2024-03-25T13:02:28;86903.38;;;12.44;100.00
12452;BME280;72521;48.924;12.204;2024-03-25T13:07:31;88012.31;;;10.50;100.00
12452;BME280;72521;48.924;12.204;2024-03-25T13:12:34;87487.53;;;11.35;100.00
12452;BME280;72521;48.924;12.204;2024-03-25T13:17:36;88845.03;;;9.52;100.00
12452;BME280;72521;48.924;12.204;2024-03-25T13:22:39;88968.38;;;10.03;100.00
12452;BME280;72521;48.924;12.204;2024-03-25T13:27:41;86775.97;;;14.48;100.00
12452;BME280;72521;48.924;12.204;2024-03-25T13:32:43;87714.53;;;11.18;100.00
12452;BME280;72521;48.924;12.204;2024-03-25T13:37:47;88027.13;;;11.88;100.00
12452;BME280;72521;48.924;12.204;2024-03-25T13:42:49;88355.13;;;11.17;100.00
12452;BME280;72521;48.924;12.204;2024-03-25T13:47:51;88836.88;;;12.09;100.00
12452;BME280;72521;48.924;12.204;2024-03-25T13:52:54;89220.41;;;12.43;100.00
12452;BME280;72521;48.924;12.204;2024-03-25T13:57:56;89654.97;;;12.73;100.00
12452;BME280;72521;48.924;12.204;2024-03-25T14:02:59;90315.72;;;12.23;100.00
12452;BME280;72521;48.924;12.204;2024-03-25T14:08:02;90799.25;;;11.92;100.00
12452;BME280;72521;48.924;12.204;2024-03-25T14:13:05;91192.56;;;11.52;100.00
12452;BME280;72521;48.924;12.204;2024-03-25T14:18:07;91705.47;;;9.59;100.00
12452;BME280;72521;48.924;12.204;2024-03-25T14:23:11;91466.44;;;10.54;100.00
12452;BME280;72521;48.924;12.204;2024-03-25T14:28:13;90701.66;;;14.99;100.00
12452;BME280;72521;48.924;12.204;2024-03-25T14:33:14;91757.66;;;15.12;100.00
12452;BME280;72521;48.924;12.204;2024-03-25T14:38:18;92414.56;;;10.48;100.00
12452;BME280;72521;48.924;12.204;2024-03-25T14:43:20;92013.03;;;11.71;100.00
12452;BME280;72521;48.924;12.204;2024-03-25T14:48:21;91837.94;;;11.85;100.00
12452;BME280;72521;48.924;12.204;2024-03-25T14:53:25;91450.94;;;13.34;100.00
12452;BME280;72521;48.924;12.204;2024-03-25T14:58:27;91119.72;;;17.54;100.00
12452;BME280;72521;48.924;12.204;2024-03-25T15:03:29;91720.19;;;19.21;100.00
12452;BME280;72521;48.924;12.204;2024-03-25T15:08:33;92830.66;;;19.35;100.00
12452;BME280;72521;48.924;12.204;2024-03-25T15:13:35;93406.41;;;17.75;100.00
12452;BME280;72521;48.924;12.204;2024-03-25T15:18:41;93142.34;;;19.14;100.00
12452;BME280;72521;48.924;12.204;2024-03-25T15:23:44;93736.03;;;16.57;100.00
12452;BME280;72521;48.924;12.204;2024-03-25T15:28:46;93794.50;;;18.26;100.00
12452;BME280;72521;48.924;12.204;2024-03-25T15:33:48;94309.94;;;19.17;98.06
12452;BME280;72521;48.924;12.204;2024-03-25T15:38:51;94997.22;;;19.26;90.08
12452;BME280;72521;48.924;12.204;2024-03-25T15:43:53;95410.06;;;19.80;79.86
12452;BME280;72521;48.924;12.204;2024-03-25T15:48:55;96007.00;;;18.83;75.17
12452;BME280;72521;48.924;12.204;2024-03-25T15:53:59;96131.50;;;16.23;76.42
12452;BME280;72521;48.924;12.204;2024-03-25T15:59:01;96118.34;;;15.36;77.36
12452;BME280;72521;48.924;12.204;2024-03-25T16:04:04;96114.97;;;15.07;78.82
12452;BME280;72521;48.924;12.204;2024-03-25T16:09:07;96124.16;;;14.42;78.23
12452;BME280;72521;48.924;12.204;2024-03-25T16:14:10;96127.69;;;13.24;77.30
12452;BME280;72521;48.924;12.204;2024-03-25T16:19:12;96098.16;;;13.38;80.52
12452;BME280;72521;48.924;12.204;2024-03-25T16:24:15;96090.03;;;11.94;85.00
12452;BME280;72521;48.924;12.204;2024-03-25T16:29:17;96074.25;;;11.30;87.97
12452;BME280;72521;48.924;12.204;2024-03-25T16:34:19;96034.13;;;10.73;93.06
12452;BME280;72521;48.924;12.204;2024-03-25T16:39:22;95948.44;;;10.48;100.00
12452;BME280;72521;48.924;12.204;2024-03-25T16:44:24;95852.31;;;9.97;100.00
12452;BME280;72521;48.924;12.204;2024-03-25T16:49:27;95697.19;;;9.68;100.00
12452;BME280;72521;48.924;12.204;2024-03-25T16:54:32;95520.44;;;9.63;100.00
12452;BME280;72521;48.924;12.204;2024-03-25T16:59:34;95479.28;;;9.42;100.00
12452;BME280;72521;48.924;12.204;2024-03-25T17:04:36;95285.97;;;10.14;100.00
12452;BME280;72521;48.924;12.204;2024-03-25T17:09:39;95119.06;;;10.12;100.00
12452;BME280;72521;48.924;12.204;2024-03-25T17:14:42;94888.94;;;9.46;100.00
12452;BME280;72521;48.924;12.204;2024-03-25T17:19:44;94660.72;;;8.96;100.00
12452;BME280;72521;48.924;12.204;2024-03-25T17:24:47;94384.59;;;8.62;100.00
12452;BME280;72521;48.924;12.204;2024-03-25T17:29:49;93916.94;;;8.33;100.00
12452;BME280;72521;48.924;12.204;2024-03-25T17:34:52;93359.72;;;7.88;100.00
12452;BME280;72521;48.924;12.204;2024-03-25T17:39:55;92927.00;;;7.67;100.00
12452;BME280;72521;48.924;12.204;2024-03-25T17:44:57;92503.94;;;7.52;100.00
12452;BME280;72521;48.924;12.204;2024-03-25T17:50:00;92197.72;;;7.15;100.00
12452;BME280;72521;48.924;12.204;2024-03-25T17:55:04;91836.13;;;6.94;100.00
12452;BME280;72521;48.924;12.204;2024-03-25T18:00:07;91357.59;;;6.83;100.00
12452;BME280;72521;48.924;12.204;2024-03-25T18:05:11;91111.19;;;6.65;100.00
12452;BME280;72521;48.924;12.204;2024-03-25T18:10:15;90764.16;;;6.45;100.00
12452;BME280;72521;48.924;12.204;2024-03-25T18:15:19;90297.47;;;6.25;100.00
12452;BME280;72521;48.924;12.204;2024-03-25T18:20:24;89941.97;;;6.24;100.00
12452;BME280;72521;48.924;12.204;2024-03-25T18:25:31;89636.66;;;6.16;100.00
12452;BME280;72521;48.924;12.204;2024-03-25T18:30:35;89414.06;;;6.04;100.00
12452;BME280;72521;48.924;12.204;2024-03-25T18:35:38;89283.97;;;5.91;100.00
12452;BME280;72521;48.924;12.204;2024-03-25T18:40:42;89190.53;;;5.88;100.00
12452;BME280;72521;48.924;12.204;2024-03-25T18:45:44;88934.50;;;5.74;100.00
12452;BME280;72521;48.924;12.204;2024-03-25T18:50:46;88863.19;;;5.65;100.00
12452;BME280;72521;48.924;12.204;2024-03-25T18:55:49;88805.44;;;5.53;100.00
12452;BME280;72521;48.924;12.204;2024-03-25T19:00:51;88679.59;;;5.37;100.00
12452;BME280;72521;48.924;12.204;2024-03-25T19:05:53;88625.91;;;5.21;100.00
12452;BME280;72521;48.924;12.204;2024-03-25T19:10:56;88534.91;;;5.10;100.00
12452;BME280;72521;48.924;12.204;2024-03-25T19:15:58;88486.25;;;4.93;100.00
12452;BME280;72521;48.924;12.204;2024-03-25T19:21:00;88449.22;;;4.68;100.00
12452;BME280;72521;48.924;12.204;2024-03-25T19:26:03;88355.19;;;4.54;100.00
12452;BME280;72521;48.924;12.204;2024-03-25T19:31:06;88275.72;;;4.34;100.00
12452;BME280;72521;48.924;12.204;2024-03-25T19:36:08;88213.63;;;4.18;100.00
12452;BME280;72521;48.924;12.204;2024-03-25T19:41:12;88174.59;;;4.03;100.00
12452;BME280;72521;48.924;12.204;2024-03-25T19:46:14;88095.72;;;3.99;100.00
12452;BME280;72521;48.924;12.204;2024-03-25T19:51:16;88007.44;;;4.09;100.00
12452;BME280;72521;48.924;12.204;2024-03-25T19:56:22;87920.06;;;4.16;100.00
12452;BME280;72521;48.924;12.204;2024-03-25T20:01:26;87951.38;;;3.99;100.00
12452;BME280;72521;48.924;12.204;2024-03-25T20:06:28;87870.19;;;3.97;100.00
12452;BME280;72521;48.924;12.204;2024-03-25T20:11:31;87856.63;;;3.87;100.00
12452;BME280;72521;48.924;12.204;2024-03-25T20:16:33;87818.88;;;3.77;100.00
12452;BME280;72521;48.924;12.204;2024-03-25T20:21:35;87732.25;;;3.79;100.00
12452;BME280;72521;48.924;12.204;2024-03-25T20:26:39;87684.09;;;3.74;100.00
12452;BME280;72521;48.924;12.204;2024-03-25T20:31:40;87634.03;;;3.70;100.00
12452;BME280;72521;48.924;12.204;2024-03-25T20:36:43;87649.00;;;3.53;100.00
12452;BME280;72521;48.924;12.204;2024-03-25T20:41:46;87571.91;;;3.46;100.00
12452;BME280;72521;48.924;12.204;2024-03-25T20:46:48;87534.69;;;3.34;100.00
12452;BME280;72521;48.924;12.204;2024-03-25T20:51:50;87516.22;;;3.21;100.00
12452;BME280;72521;48.924;12.204;2024-03-25T20:56:54;87659.19;;;3.12;100.00
12452;BME280;72521;48.924;12.204;2024-03-25T21:01:56;88156.16;;;2.98;100.00
12452;BME280;72521;48.924;12.204;2024-03-25T21:06:58;88148.03;;;2.90;100.00
12452;BME280;72521;48.924;12.204;2024-03-25T21:12:02;88314.63;;;2.88;100.00
12452;BME280;72521;48.924;12.204;2024-03-25T21:17:04;88954.13;;;2.89;100.00
12452;BME280;72521;48.924;12.204;2024-03-25T21:22:06;89444.09;;;2.87;100.00
12452;BME280;72521;48.924;12.204;2024-03-25T21:27:09;89661.59;;;2.77;100.00
12452;BME280;72521;48.924;12.204;2024-03-25T21:32:12;90500.00;;;2.65;100.00
12452;BME280;72521;48.924;12.204;2024-03-25T21:37:15;90589.66;;;2.71;100.00
12452;BME280;72521;48.924;12.204;2024-03-25T21:42:19;90584.56;;;2.64;100.00
12452;BME280;72521;48.924;12.204;2024-03-25T21:47:22;90963.84;;;2.59;100.00
12452;BME280;72521;48.924;12.204;2024-03-25T21:52:24;91464.53;;;2.59;100.00
12452;BME280;72521;48.924;12.204;2024-03-25T21:57:28;91679.88;;;2.64;100.00
12452;BME280;72521;48.924;12.204;2024-03-25T22:02:30;91688.06;;;2.55;100.00
12452;BME280;72521;48.924;12.204;2024-03-25T22:07:32;91544.25;;;2.53;100.00
12452;BME280;72521;48.924;12.204;2024-03-25T22:12:35;91309.59;;;2.50;100.00
12452;BME280;72521;48.924;12.204;2024-03-25T22:17:37;91035.03;;;2.56;100.00
12452;BME280;72521;48.924;12.204;2024-03-25T22:22:39;90160.56;;;2.54;100.00
12452;BME280;72521;48.924;12.204;2024-03-25T22:27:43;90020.38;;;2.45;100.00
12452;BME280;72521;48.924;12.204;2024-03-25T22:32:45;89345.09;;;2.43;100.00
12452;BME280;72521;48.924;12.204;2024-03-25T22:37:47;89535.63;;;2.45;100.00
12452;BME280;72521;48.924;12.204;2024-03-25T22:42:51;89052.97;;;2.32;100.00
12452;BME280;72521;48.924;12.204;2024-03-25T22:47:52;87861.59;;;2.24;100.00
12452;BME280;72521;48.924;12.204;2024-03-25T22:52:54;88745.63;;;2.14;100.00
12452;BME280;72521;48.924;12.204;2024-03-25T22:57:58;87957.81;;;2.13;100.00
12452;BME280;72521;48.924;12.204;2024-03-25T23:03:00;87600.19;;;2.05;100.00
12452;BME280;72521;48.924;12.204;2024-03-25T23:08:02;88137.16;;;2.05;100.00
12452;BME280;72521;48.924;12.204;2024-03-25T23:13:06;87385.78;;;2.02;98.55
12452;BME280;72521;48.924;12.204;2024-03-25T23:18:08;87086.72;;;1.99;96.45
12452;BME280;72521;48.924;12.204;2024-03-25T23:23:11;86881.69;;;1.92;96.26
12452;BME280;72521;48.924;12.204;2024-03-25T23:28:15;86687.84;;;1.79;95.71
12452;BME280;72521;48.924;12.204;2024-03-25T23:33:17;86110.38;;;1.79;93.54
12452;BME280;72521;48.924;12.204;2024-03-25T23:38:19;85960.72;;;1.78;91.22
12452;BME280;72521;48.924;12.204;2024-03-25T23:43:22;85767.03;;;1.79;90.25
12452;BME280;72521;48.924;12.204;2024-03-25T23:48:24;85694.19;;;1.72;89.32
12452;BME280;72521;48.924;12.204;2024-03-25T23:53:26;85492.91;;;1.67;89.08
12452;BME280;72521;48.924;12.204;2024-03-25T23:58:30;85565.56;;;1.73;87.50
